Unicom:                    122.8

AWOS:                  118.275

Elevation           1458’ MSL

TPA:                   2500’ MSL

06/24:         5003’ L   75’ W

PAPI:       06/Left     24/Left

(Operate lights on unicom freq.)

Traffic Pattern: Left

Beacon: Sunset to Sunrise

Windsock: yes, lighted

Segmented Circle: No

 

Cleveland Center: 126.72/291.65

FSS: Altoona

[Source: ADDS]
METAR
KFKL 011656Z AUTO 27008KT 10SM FEW035 SCT045 BKN060 22/15 A2988 RMK AO2 LTG DSNT W-NE SLP111 T02220150 =
KFKL 011120Z 0112/0212 00000KT P6SM SKC FM011500 24005KT P6SM BKN040 TEMPO 0119/0123 3SM -TSRA BKN025CB FM012300 31006KT P6SM SKC FM020900 VRB03KT P6SM OVC005
TAF
KFKL 011120Z 0112/0212 00000KT P6SM SKC FM011500 24005KT P6SM BKN040 TEMPO 0119/0123 3SM -TSRA BKN025CB FM012300 31006KT P6SM SKC FM020900 VRB03KT P6SM OVC005 =
[Source: ADDS]
METAR
KDUJ 011653Z AUTO 23008KT 10SM SCT035 SCT055 BKN075 23/14 A2987 RMK AO2 SLP103 T02280144 =
KDUJ 011120Z 0112/0212 18004KT P6SM BKN035 TEMPO 0121/0124 2SM -TSRA BKN025CB FM020100 29008KT P6SM SKC FM020900 VRB03KT P6SM OVC006
TAF
KDUJ 011120Z 0112/0212 18004KT P6SM BKN035 TEMPO 0121/0124 2SM -TSRA BKN025CB FM020100 29008KT P6SM SKC FM020900 VRB03KT P6SM OVC006 =